• Join FlightAware (Why Join?)
  • Login
  • US Flag 
07:07AM EDT


 

Airport Tracker/Info


-or-


 

Live Flight TrackerFlight Track Log ✈ EJA922P ✈ 26-Jun-2014 ✈ KMFR - KLAS

Flight Track Log - Related Links

Times and Time Zones

All times are in EDT time to prevent confusion due to time zone crossing. See the EJA922P flight status page for this flight to view local times or setup timezone preferences in your user account.

Time Position Orientation Groundspeed Altitude Reporting Facility
EDT Latitude Longitude Course Direction KTS MPH feet Rate Location/Type
01:36PM 42.4117 -122.8794 44° Northeast 181 208 3,400  Level Seattle Center
01:37PM 42.4581 -122.8189 44° Northeast 248 285 7,700 3,600 Climbing Seattle Center
01:39PM 42.4381 -122.7236 106° East 270 311 10,900 2,280 Climbing Seattle Center
01:41PM 42.3725 -122.4881 111° Southeast 370 426 14,700 1,980 Climbing Seattle Center
01:43PM 42.2258 -122.2292 127° Southeast 416 479 19,100 2,040 Climbing Seattle Center
01:44PM 42.1317 -122.1344 143° Southeast 419 482 21,100 1,860 Climbing Seattle Center
01:46PM 41.9428 -121.9483 144° Southeast 443 510 24,700 1,740 Climbing Oakland Center
01:47PM 41.8411 -121.8467 143° Southeast 457 526 26,300 1,500 Climbing Oakland Center
01:48PM 41.7350 -121.7411 143° Southeast 474 545 27,800 1,440 Climbing Oakland Center
01:49PM 41.6025 -121.6114 144° Southeast 492 566 29,400 1,260 Climbing Seattle Center
01:50PM 41.4878 -121.4997 144° Southeast 509 586 30,600 1,200 Climbing Seattle Center
01:51PM 41.3706 -121.3856 144° Southeast 518 596 31,900 1,260 Climbing Seattle Center
01:52PM 41.2500 -121.2689 144° Southeast 533 613 33,200 1,140 Climbing Seattle Center
01:54PM 41.0000 -121.0239 143° Southeast 557 641 35,500 1,020 Climbing Oakland Center
01:55PM 40.8692 -120.9000 144° Southeast 572 658 36,400 900 Climbing Oakland Center
01:56PM 40.7372 -120.7733 144° Southeast 586 674 37,400 960 Climbing Seattle Center
01:57PM 40.6036 -120.6497 145° Southeast 586 674 38,400 780 Climbing Oakland Center
01:58PM 40.4467 -120.5000 144° Southeast 586 674 39,000 240 Climbing Oakland Center
01:59PM 40.3253 -120.3914 146° Southeast 585 673 39,000  Level Oakland Center
02:00PM 40.1972 -120.2689 144° Southeast 576 663 39,000  Level Oakland Center
02:01PM 40.0453 -120.1289 145° Southeast 564 649 39,000  Level Oakland Center
02:02PM 39.9225 -120.0142 144° Southeast 554 638 39,000  Level Oakland Center
02:03PM 39.7981 -119.9008 145° Southeast 551 634 39,000  Level Oakland Center
02:04PM 39.6753 -119.7892 145° Southeast 546 628 39,000  Level Oakland Center
02:05PM 39.5533 -119.6778 145° Southeast 543 625 39,000  Level Oakland Center
02:06PM 39.4447 -119.5497 138° Southeast 536 617 39,000  Level Oakland Center
02:07PM 39.3400 -119.4158 135° Southeast 536 617 39,000  Level Oakland Center
02:08PM 39.2125 -119.2544 136° Southeast 536 617 39,000  Level Oakland Center
02:09PM 39.1075 -119.1236 136° Southeast 535 616 39,000  Level Oakland Center
02:10PM 39.0014 -118.9897 136° Southeast 536 617 39,000  Level Oakland Center
02:11PM 38.8956 -118.8586 136° Southeast 536 617 39,000  Level Oakland Center
02:13PM 38.6603 -118.5681 137° Southeast 536 617 39,000  Level Oakland Center
02:14PM 38.5536 -118.4367 136° Southeast 536 617 39,000  Level Oakland Center
02:15PM 38.4464 -118.3064 136° Southeast 536 617 39,000  Level Oakland Center
02:16PM 38.3389 -118.1758 136° Southeast 536 617 39,000  Level Oakland Center
02:17PM 38.2211 -118.0336 136° Southeast 535 616 39,000  Level Oakland Center
02:18PM 38.1144 -117.9039 136° Southeast 534 615 39,000  Level Oakland Center
02:20PM 38.0064 -117.7775 137° Southeast 534 615 39,000  Level Oakland Center
02:21PM 37.8886 -117.6711 145° Southeast 523 602 39,000 -360 Level Oakland Center
02:22PM 37.7678 -117.5689 146° Southeast 523 602 38,300 -1,500 Descending Oakland Center
02:23PM 37.6172 -117.4383 146° Southeast 549 632 35,900 -2,160 Descending Oakland Center
02:24PM 37.4972 -117.3353 146° Southeast 530 610 33,900 -1,620 Descending Oakland Center
02:24PM 37.4256 -117.2756 146° Southeast 525 604 33,100 -360 Descending Los Angeles Center
02:26PM 37.1600 -117.0500 146° Southeast 524 603 33,000 -60 Descending Los Angeles Center
02:27PM 37.0414 -116.9494 146° Southeast 518 596 33,000  Level Los Angeles Center
02:28PM 36.9222 -116.8500 146° Southeast 517 595 33,000 -960 Level Los Angeles Center
02:30PM 36.8008 -116.7442 145° Southeast 529 609 31,100 -1,920 Descending Los Angeles Center
02:31PM 36.6981 -116.6028 132° Southeast 546 628 29,100 -1,500 Descending Los Angeles Center
02:33PM 36.4992 -116.3181 131° Southeast 521 600 26,500 -2,220 Descending Los Angeles Center
02:34PM 36.3839 -116.1558 131° Southeast 517 595 22,300 -3,600 Descending Los Angeles Center
02:34PM 36.3347 -116.0903 133° Southeast 504 580 20,700 -2,640 Descending Los Angeles Center
02:35PM 36.2969 -116.0378 132° Southeast 469 540 19,600 -2,640 Descending Los Angeles Center
02:36PM 36.2158 -115.9233 131° Southeast 364 419 16,500 -1,860 Descending Los Angeles Center
02:38PM 36.1375 -115.7053 114° Southeast 364 419 14,000 -1,260 Descending Los Angeles Center
02:39PM 36.0981 -115.5814 111° Southeast 362 417 12,900 -1,080 Descending Los Angeles Center
02:40PM 36.0617 -115.4697 112° Southeast 355 409 11,800 -1,020 Descending Los Angeles Center
02:41PM 36.0292 -115.3550 109° East 331 381 10,800 -1,140 Descending Los Angeles Center
02:42PM 36.0219 -115.2456 95° East 322 371 9,500 -1,080 Descending Los Angeles Center
02:43PM 36.0128 -115.1358 96° East 293 337 8,600 -720 Descending Los Angeles Center
02:44PM 36.0078 -115.0525 94° East 224 258 8,100 -300 Descending Los Angeles Center
02:45PM 36.0056 -114.9733 92° East 232 267 8,000 -300 Descending Los Angeles Center
02:46PM 36.0578 -114.9056 46° Northeast 237 273 7,500 -780 Descending Los Angeles Center
02:47PM 36.1092 -114.9200 347° North 188 216 6,400 -1,200 Descending Los Angeles Center
02:48PM 36.1375 -114.9817 300° West 195 224 5,100 -1,020 Descending Los Angeles Center
02:49PM 36.1450 -115.0442 278° West 188 216 4,300 -720 Descending Los Angeles Center
02:50PM 36.1511 -115.0956 278° West 171 197 3,800 -720 Descending Los Angeles Center
02:51PM 36.1378 -115.1344 247° West 121 139 3,000 -840 Descending Los Angeles Center
02:51PM 36.1308 -115.1381 203° Southwest 127 146 2,800 -720 Descending Los Angeles Center
02:52PM 36.1033 -115.1539 205° Southwest 128 147 2,300 -600 Descending Los Angeles Center
02:52PM 36.0981 -115.1564 201° Southwest 128 147 2,200 -480 Descending Los Angeles Center
02:54PM 36.0801 -115.1523 180° South  Level Estimated